Decoded Metar for LKMT (OSTRAVA in CZECH REPUBLIC) (IATA:OSR) | Meteo·Mobile Aviation Weather
aviador You're here:

LKMT Decoded Metar

OSTRAVA in CZECH REPUBLIC
Report Time2019-01-20 10:30:00
UTC Time2019-01-20 10:48:44
Flight Rules ifr IFR
Wind050° at 03 kt
W.Decomp.*RWY 04: 3.0 kt HW 0.3 kt RCW
W.Rank050° ranks 12
Current wind is below 050° avg. (5.9)
Visibility2000 m
Phenomena:Mist
Clouds:N/A
Expected CloudBase > 800 ft AGL from Temp-Dew spread
CeilingNone
Temp-3°C (ISA -16)
Dew Point-5°C (86% RH)
AAT-6.7°C
QNH1017 hPa
Density Alt-1,240 ft
Elevation840 ft
Report Wrong Elevation
Raw Report
LKMT 201030Z 05003KT 2000 BR NSC M03/M05 Q1017 R04/31//95 TEMPO
3000 BR=

Extra information for LKMT:More info

Metar Taf Metar & Taf Last 4 Metars F.Rules Stats Wind Profile Meteogram Temp Stats Airport Information Weather charts Add Link Nearby VenuesMetar ALERT Operation Metar Decoded Social comments